Zandhoven, Belgium
Current Conditions -  °F | °C
As of 11:50 PM on Wednesday 22 Oct 2014 (Local Time) from EBAW Reporting Station
Overcast Overcast  
Wind Chill: 10°   Ceiling: 4900
Heat Index: 10°   Visibility: 6mi
Dew Point:   Wind: 7mph
Humidity: 82%   Direction: 230°SW
Pressure: 30.21"   Gusts: NA
Location:  51.21°N, 4.66°E
Report Text: EBAW 222150Z AUTO 23006KT 9999 OVC049/// 10/07 Q1023
Loading
Personal Weather Stations






























Interactive Weather Map
Tropical Storm Tracking
New forecast layout! Learn more

10-Day Weather Forecast

Advertisements
Track Severe Weather on mobile